| time (UTC) | temp C | wind direction | speed KPH | gust KPH | rain 1hr cm | rain 24hr cm | rain mn cm | humidity % | barometer mb |
| 20260507203033 | 16 | 360 | 1.6 | 3.2 | 0.00 | 0.08 | 0.05 | 71 | 1013.0 |
| 20260507201604 | 16 | 360 | 6.4 | 9.7 | 0.00 | 0.08 | 0.05 | 68 | 1012.8 |
| 20260507200114 | 16 | 360 | 3.2 | 8.0 | 0.00 | 0.08 | 0.05 | 68 | 1012.7 |
| 20260507194632 | 16 | 360 | 3.2 | 6.4 | 0.00 | 0.08 | 0.05 | 69 | 1012.6 |
| 20260507193001 | 17 | 360 | 3.2 | 6.4 | 0.00 | 0.08 | 0.05 | 71 | 1012.4 |
| 20260507191634 | 17 | 360 | 4.8 | 8.0 | 0.00 | 0.08 | 0.05 | 71 | 1012.3 |
| 20260507190127 | 17 | 360 | 6.4 | 9.7 | 0.00 | 0.08 | 0.05 | 70 | 1012.1 |
| 20260507184628 | 17 | 360 | 8.0 | 11.3 | 0.00 | 0.08 | 0.05 | 70 | 1011.9 |
| 20260507183121 | 17 | 360 | 8.0 | 12.9 | 0.00 | 0.08 | 0.05 | 70 | 1011.7 |
| 20260507181610 | 17 | 360 | 11.3 | 14.5 | 0.00 | 0.08 | 0.05 | 70 | 1011.7 |
| 20260507180119 | 17 | 360 | 12.9 | 14.5 | 0.00 | 0.08 | 0.05 | 70 | 1011.5 |
| 20260507174610 | 17 | 360 | 11.3 | 14.5 | 0.03 | 0.08 | 0.05 | 67 | 1011.3 |
| 20260507173105 | 17 | 360 | 11.3 | 17.7 | 0.03 | 0.08 | 0.05 | 66 | 1011.3 |
| 20260507171622 | 17 | 360 | 17.7 | 22.5 | 0.03 | 0.08 | 0.05 | 64 | 1011.4 |
| 20260507170123 | 17 | 360 | 11.3 | 17.7 | 0.03 | 0.08 | 0.05 | 69 | 1011.4 |
| 20260507164634 | 17 | 360 | 14.5 | 16.1 | 0.00 | 0.05 | 0.03 | 70 | 1011.4 |
| 20260507163011 | 18 | 360 | 12.9 | 19.3 | 0.00 | 0.05 | 0.03 | 69 | 1011.5 |
| 20260507161545 | 18 | 360 | 17.7 | 22.5 | 0.00 | 0.05 | 0.03 | 66 | 1011.5 |
| 20260507160026 | 18 | 360 | 9.7 | 12.9 | 0.00 | 0.05 | 0.03 | 67 | 1011.4 |
| 20260507154605 | 18 | 360 | 8.0 | 11.3 | 0.00 | 0.05 | 0.03 | 63 | 1011.4 |
| 20260507153110 | 18 | 360 | 6.4 | 9.7 | 0.00 | 0.05 | 0.03 | 62 | 1011.6 |
| 20260507151527 | 18 | 360 | 9.7 | 12.9 | 0.00 | 0.05 | 0.03 | 63 | 1011.7 |
| 20260507150053 | 17 | 360 | 9.7 | 11.3 | 0.00 | 0.05 | 0.03 | 68 | 1011.7 |
| 20260507144609 | 18 | 360 | 9.7 | 12.9 | 0.00 | 0.05 | 0.03 | 63 | 1011.9 |
| 20260507143116 | 18 | 360 | 9.7 | 12.9 | 0.00 | 0.05 | 0.03 | 63 | 1011.9 |
| 20260507141626 | 18 | 360 | 9.7 | 14.5 | 0.00 | 0.05 | 0.03 | 65 | 1012.0 |
| 20260507140003 | 18 | 360 | 9.7 | 16.1 | 0.00 | 0.05 | 0.03 | 61 | 1012.1 |
| 20260507134503 | 17 | 360 | 12.9 | 14.5 | 0.00 | 0.05 | 0.03 | 62 | 1012.2 |
| 20260507133130 | 17 | 360 | 8.0 | 11.3 | 0.00 | 0.05 | 0.03 | 61 | 1012.5 |
| 20260507131612 | 17 | 360 | 8.0 | 11.3 | 0.00 | 0.05 | 0.03 | 64 | 1012.6 |
| 20260507130121 | 17 | 360 | 11.3 | 14.5 | 0.00 | 0.05 | 0.03 | 65 | 1012.7 |
| 20260507124607 | 17 | 360 | 9.7 | 11.3 | 0.00 | 0.05 | 0.03 | 68 | 1012.8 |
| 20260507123055 | 16 | 360 | 9.7 | 12.9 | 0.00 | 0.05 | 0.03 | 70 | 1012.9 |
| 20260507121608 | 16 | 360 | 8.0 | 11.3 | 0.00 | 0.05 | 0.03 | 69 | 1013.0 |
| 20260507120110 | 16 | 360 | 8.0 | 11.3 | 0.00 | 0.05 | 0.03 | 71 | 1013.1 |
| 20260507114616 | 16 | 360 | 8.0 | 11.3 | 0.00 | 0.05 | 0.03 | 73 | 1013.2 |
| 20260507113115 | 15 | 360 | 9.7 | 12.9 | 0.00 | 0.05 | 0.03 | 73 | 1013.3 |
| 20260507111609 | 15 | 360 | 9.7 | 11.3 | 0.00 | 0.05 | 0.03 | 74 | 1013.4 |
| 20260507110111 | 15 | 360 | 9.7 | 12.9 | 0.00 | 0.05 | 0.03 | 74 | 1013.6 |
| 20260507104609 | 14 | 360 | 8.0 | 12.9 | 0.00 | 0.36 | 0.03 | 76 | 1013.6 |
| 20260507103055 | 14 | 360 | 9.7 | 11.3 | 0.00 | 0.36 | 0.03 | 76 | 1013.7 |
| 20260507101606 | 13 | 360 | 9.7 | 12.9 | 0.00 | 0.36 | 0.03 | 78 | 1013.8 |
| 20260507100048 | 13 | 360 | 8.0 | 11.3 | 0.00 | 0.36 | 0.03 | 78 | 1013.9 |
| 20260507094533 | 13 | 360 | 8.0 | 11.3 | 0.00 | 0.38 | 0.03 | 85 | 1013.9 |
| 20260507093105 | 12 | 360 | 8.0 | 11.3 | 0.00 | 0.38 | 0.03 | 86 | 1014.0 |
| 20260507091625 | 12 | 360 | 6.4 | 8.0 | 0.00 | 0.38 | 0.03 | 83 | 1014.0 |
| 20260507090110 | 12 | 360 | 3.2 | 6.4 | 0.03 | 0.38 | 0.03 | 80 | 1014.0 |
| 20260507084604 | 12 | 360 | 4.8 | 8.0 | 0.03 | 0.43 | 0.03 | 82 | 1014.1 |
| 20260507083105 | 12 | 360 | 4.8 | 8.0 | 0.03 | 0.43 | 0.03 | 81 | 1014.1 |
| 20260507081613 | 12 | 360 | 4.8 | 11.3 | 0.03 | 0.43 | 0.03 | 84 | 1014.2 |
| 20260507080106 | 12 | 360 | 3.2 | 6.4 | 0.00 | 0.41 | 0.00 | 86 | 1014.2 |
| 20260507074619 | 12 | 360 | 3.2 | 6.4 | 0.00 | 0.41 | 0.00 | 85 | 1014.3 |
| 20260507073003 | 12 | 360 | 4.8 | 8.0 | 0.00 | 0.41 | 0.00 | 84 | 1014.3 |
| 20260507071504 | 12 | 360 | 1.6 | 6.4 | 0.00 | 0.41 | 0.00 | 85 | 1014.4 |
| 20260507070010 | 11 | 360 | 0.0 | 4.8 | 0.00 | 0.41 | 0.00 | 87 | 1014.4 |
| 20260507064634 | 11 | 360 | 3.2 | 4.8 | 0.00 | 0.43 | 0.00 | 87 | 1014.3 |
| 20260507063019 | 11 | 360 | 0.0 | 0.0 | 0.00 | 0.43 | 0.00 | 87 | 1014.4 |
| 20260507061551 | 11 | 360 | 0.0 | 4.8 | 0.00 | 0.43 | 0.00 | 89 | 1014.3 |
| 20260507060107 | 11 | 360 | 0.0 | 3.2 | 0.00 | 0.43 | 0.00 | 91 | 1014.3 |
| 20260507054640 | 11 | 360 | 0.0 | 4.8 | 0.00 | 0.43 | 0.00 | 92 | 1014.4 |
| 20260507053130 | 10 | 360 | 1.6 | 8.0 | 0.00 | 0.43 | 0.00 | 92 | 1014.3 |
| 20260507051625 | 10 | 360 | 1.6 | 4.8 | 0.00 | 0.43 | 0.00 | 92 | 1014.1 |
| 20260507050127 | 10 | 360 | 0.0 | 0.0 | 0.00 | 0.43 | 0.00 | 92 | 1014.0 |
| 20260507044630 | 10 | 360 | 0.0 | 4.8 | 0.00 | 0.43 | 0.00 | 91 | 1013.9 |
| 20260507043001 | 10 | 360 | 1.6 | 6.4 | 0.00 | 0.43 | 0.00 | 91 | 1013.8 |
| 20260507041506 | 10 | 360 | 9.7 | 11.3 | 0.00 | 0.43 | 0.00 | 91 | 1013.7 |
| 20260507040052 | 10 | 360 | 4.8 | 8.0 | 0.00 | 0.43 | 0.00 | 92 | 1013.7 |
| 20260507034603 | 10 | 360 | 1.6 | 6.4 | 0.00 | 0.43 | 0.00 | 91 | 1013.6 |
| 20260507033032 | 10 | 360 | 3.2 | 6.4 | 0.00 | 0.43 | 0.00 | 91 | 1013.6 |
| 20260507031609 | 10 | 360 | 1.6 | 8.0 | 0.00 | 0.43 | 0.00 | 90 | 1013.6 |
| 20260507030115 | 10 | 360 | 1.6 | 8.0 | 0.00 | 0.43 | 0.00 | 90 | 1013.5 |
| 20260507024619 | 10 | 360 | 1.6 | 6.4 | 0.00 | 0.43 | 0.00 | 90 | 1013.6 |
| 20260507023129 | 10 | 360 | 4.8 | 8.0 | 0.00 | 0.43 | 0.00 | 90 | 1013.6 |
| 20260507021504 | 10 | 360 | 1.6 | 4.8 | 0.00 | 0.43 | 0.00 | 89 | 1013.6 |
| 20260507020019 | 10 | 360 | 3.2 | 6.4 | 0.00 | 0.43 | 0.00 | 88 | 1013.5 |
| 20260507014503 | 10 | 360 | 3.2 | 6.4 | 0.00 | 0.43 | 0.00 | 88 | 1013.5 |
| 20260507013133 | 10 | 360 | 3.2 | 8.0 | 0.00 | 0.43 | 0.00 | 88 | 1013.4 |
| 20260507011512 | 10 | 360 | 3.2 | 4.8 | 0.00 | 0.43 | 0.00 | 88 | 1013.2 |
| 20260507010017 | 10 | 360 | 3.2 | 6.4 | 0.00 | 0.43 | 0.00 | 87 | 1013.2 |
| 20260507004553 | 10 | 360 | 1.6 | 4.8 | 0.00 | 0.43 | 0.00 | 86 | 1013.1 |
| 20260507003107 | 10 | 360 | 3.2 | 6.4 | 0.00 | 0.43 | 0.00 | 85 | 1013.2 |
| 20260507001607 | 11 | 360 | 3.2 | 4.8 | 0.00 | 0.43 | 0.00 | 84 | 1013.2 |
| 20260507000048 | 11 | 360 | 0.0 | 4.8 | 0.00 | 0.43 | 0.00 | 82 | 1013.1 |
| 20260506234507 | 11 | 360 | 4.8 | 11.3 | 0.00 | 0.43 | 0.00 | 81 | 1013.1 |
| 20260506233112 | 11 | 360 | 1.6 | 4.8 | 0.00 | 0.43 | 0.00 | 82 | 1013.1 |
| 20260506231514 | 11 | 360 | 3.2 | 6.4 | 0.00 | 0.43 | 0.00 | 81 | 1013.0 |
| 20260506230109 | 12 | 360 | 3.2 | 9.7 | 0.00 | 0.43 | 0.00 | 80 | 1013.1 |
| 20260506224614 | 12 | 360 | 1.6 | 6.4 | 0.00 | 0.43 | 0.00 | 77 | 1013.0 |
| 20260506223114 | 12 | 360 | 6.4 | 9.7 | 0.00 | 0.43 | 0.00 | 79 | 1012.9 |
| 20260506221607 | 12 | 360 | 3.2 | 6.4 | 0.00 | 0.43 | 0.00 | 79 | 1012.8 |
| 20260506220100 | 12 | 360 | 3.2 | 9.7 | 0.00 | 0.43 | 0.00 | 80 | 1012.7 |
| 20260506214605 | 12 | 360 | 3.2 | 8.0 | 0.05 | 0.48 | 0.43 | 79 | 1012.6 |
| 20260506213124 | 13 | 360 | 3.2 | 9.7 | 0.05 | 0.48 | 0.43 | 78 | 1012.5 |
| 20260506211610 | 13 | 360 | 11.3 | 12.9 | 0.05 | 0.48 | 0.43 | 78 | 1012.5 |
| 20260506210119 | 12 | 360 | 12.9 | 19.3 | 0.05 | 0.48 | 0.43 | 84 | 1012.4 |
| 20260506204626 | 12 | 360 | 3.2 | 4.8 | 0.00 | 0.71 | 0.41 | 85 | 1012.3 |